This is the latest recevied weather packets stored in our database for station/object EA4IAJ-12. If no packets are shown the sender has not sent any weather packets the latest 10 day(s).
| Time | Temp. | Humidity | Pressure | Rain* | Wind** | Luminosity | Snow |
|---|---|---|---|---|---|---|---|
| 1777437009 | 13.33° C | 100% | 994.1 hPa | - | - | - | - |
| 1777436109 | 13.89° C | 100% | 994.6 hPa | - | - | - | - |
| 1777435208 | 13.89° C | 100% | 995.4 hPa | - | - | - | - |
| 1777434320 | 13.89° C | 99% | 995.8 hPa | - | - | - | - |
| 1777433419 | 13.89° C | 96% | 995.3 hPa | - | - | - | - |
| 1777432519 | 14.44° C | 93% | 996.4 hPa | - | - | - | - |
| 1777431618 | 14.44° C | 91% | 996.9 hPa | - | - | - | - |
| 1777430718 | 15° C | 88% | 997.2 hPa | - | - | - | - |
| 1777429817 | 15° C | 85% | 997.6 hPa | - | - | - | - |
| 1777428916 | 15° C | 82% | 997.8 hPa | - | - | - | - |
| 1777428016 | 15° C | 79% | 998.2 hPa | - | - | - | - |
| 1777427115 | 15.56° C | 76% | 999.5 hPa | - | - | - | - |
| 1777425314 | 16.11° C | 70% | 1000.8 hPa | - | - | - | - |
| 1777423514 | 16.67° C | 64% | 1001.5 hPa | - | - | - | - |
| 1777422613 | 16.11° C | 62% | 1000.9 hPa | - | - | - | - |
| 1777421712 | 16.11° C | 59% | 1000.2 hPa | - | - | - | - |
| 1777420812 | 16.11° C | 56% | 1000.5 hPa | - | - | - | - |
| 1777419911 | 16.11° C | 54% | 1000.4 hPa | - | - | - | - |
| 1777419011 | 16.11° C | 52% | 1000.1 hPa | - | - | - | - |
| 1777418110 | 16.67° C | 50% | 1001.2 hPa | - | - | - | - |
| 1777417210 | 17.22° C | 49% | 1002.2 hPa | - | - | - | - |
| 1777416309 | 17.22° C | 48% | 1002.3 hPa | - | - | - | - |
| 1777415409 | 17.22° C | 46% | 1003 hPa | - | - | - | - |
| 1777414508 | 17.78° C | 45% | 1003.8 hPa | - | - | - | - |
| 1777413608 | 17.78° C | 44% | 1003.7 hPa | - | - | - | - |
* Rain since midnight (hover to see other rain measurements)
** Current wind speed in m/s (hover to see current wind gust speed)